sensor_id;sensor_type;location;lat;lon;timestamp;pressure;altitude;pressure_sealevel;temperature;humidity
19510;BME280;9896;42.486;26.506;2023-02-28T00:00:32;100505.38;;;7.48;100.00
19510;BME280;9896;42.486;26.506;2023-02-28T00:02:58;100509.56;;;7.35;100.00
19510;BME280;9896;42.486;26.506;2023-02-28T00:05:25;100508.56;;;7.36;100.00
19510;BME280;9896;42.486;26.506;2023-02-28T00:07:52;100514.41;;;7.31;100.00
19510;BME280;9896;42.486;26.506;2023-02-28T00:10:22;100500.09;;;7.32;100.00
19510;BME280;9896;42.486;26.506;2023-02-28T00:12:51;100506.25;;;7.33;100.00
19510;BME280;9896;42.486;26.506;2023-02-28T00:15:18;100511.91;;;7.30;100.00
19510;BME280;9896;42.486;26.506;2023-02-28T00:17:44;100515.75;;;7.27;100.00
19510;BME280;9896;42.486;26.506;2023-02-28T00:20:11;100496.56;;;7.40;100.00
19510;BME280;9896;42.486;26.506;2023-02-28T00:22:39;100521.59;;;7.31;100.00
19510;BME280;9896;42.486;26.506;2023-02-28T00:25:06;100527.91;;;7.30;100.00
19510;BME280;9896;42.486;26.506;2023-02-28T00:27:34;100538.09;;;7.34;100.00
19510;BME280;9896;42.486;26.506;2023-02-28T00:30:00;100538.78;;;7.28;100.00
19510;BME280;9896;42.486;26.506;2023-02-28T00:32:26;100534.59;;;7.18;100.00
19510;BME280;9896;42.486;26.506;2023-02-28T00:34:51;100537.59;;;7.23;100.00
19510;BME280;9896;42.486;26.506;2023-02-28T00:37:17;100533.97;;;7.16;100.00
19510;BME280;9896;42.486;26.506;2023-02-28T00:39:43;100538.78;;;7.20;100.00
19510;BME280;9896;42.486;26.506;2023-02-28T00:42:09;100537.09;;;7.27;100.00
19510;BME280;9896;42.486;26.506;2023-02-28T00:44:34;100543.44;;;7.26;100.00
19510;BME280;9896;42.486;26.506;2023-02-28T00:47:00;100534.59;;;7.26;100.00
19510;BME280;9896;42.486;26.506;2023-02-28T00:49:26;100522.47;;;7.07;100.00
19510;BME280;9896;42.486;26.506;2023-02-28T00:51:53;100524.63;;;7.04;100.00
19510;BME280;9896;42.486;26.506;2023-02-28T00:54:20;100545.28;;;7.10;100.00
19510;BME280;9896;42.486;26.506;2023-02-28T00:56:46;100518.13;;;7.06;100.00
19510;BME280;9896;42.486;26.506;2023-02-28T00:59:13;100541.28;;;7.06;100.00
19510;BME280;9896;42.486;26.506;2023-02-28T01:01:39;100535.94;;;7.06;100.00
19510;BME280;9896;42.486;26.506;2023-02-28T01:04:05;100524.47;;;7.13;100.00
19510;BME280;9896;42.486;26.506;2023-02-28T01:06:31;100530.63;;;7.06;100.00
19510;BME280;9896;42.486;26.506;2023-02-28T01:08:57;100539.94;;;7.18;100.00
19510;BME280;9896;42.486;26.506;2023-02-28T01:11:23;100543.78;;;7.07;100.00
19510;BME280;9896;42.486;26.506;2023-02-28T01:13:49;100553.13;;;7.11;100.00
19510;BME280;9896;42.486;26.506;2023-02-28T01:16:15;100544.78;;;7.14;100.00
19510;BME280;9896;42.486;26.506;2023-02-28T01:18:41;100525.97;;;6.91;100.00
19510;BME280;9896;42.486;26.506;2023-02-28T01:21:10;100544.28;;;7.03;100.00
19510;BME280;9896;42.486;26.506;2023-02-28T01:23:36;100542.13;;;6.98;100.00
19510;BME280;9896;42.486;26.506;2023-02-28T01:26:06;100533.28;;;7.14;100.00
19510;BME280;9896;42.486;26.506;2023-02-28T01:28:32;100522.97;;;6.94;100.00
19510;BME280;9896;42.486;26.506;2023-02-28T01:30:58;100533.63;;;6.94;100.00
19510;BME280;9896;42.486;26.506;2023-02-28T01:33:24;100556.13;;;7.08;100.00
19510;BME280;9896;42.486;26.506;2023-02-28T01:35:57;100544.28;;;7.11;100.00
19510;BME280;9896;42.486;26.506;2023-02-28T01:38:22;100557.13;;;7.15;100.00
19510;BME280;9896;42.486;26.506;2023-02-28T01:40:48;100570.81;;;7.12;100.00
19510;BME280;9896;42.486;26.506;2023-02-28T01:43:26;100577.13;;;6.95;100.00
19510;BME280;9896;42.486;26.506;2023-02-28T01:45:53;100553.28;;;6.93;100.00
19510;BME280;9896;42.486;26.506;2023-02-28T01:48:21;100560.63;;;6.83;100.00
19510;BME280;9896;42.486;26.506;2023-02-28T01:50:48;100563.94;;;6.69;100.00
19510;BME280;9896;42.486;26.506;2023-02-28T01:53:18;100566.63;;;6.85;100.00
19510;BME280;9896;42.486;26.506;2023-02-28T01:55:47;100589.28;;;6.89;100.00
19510;BME280;9896;42.486;26.506;2023-02-28T01:58:15;100574.63;;;6.85;100.00
19510;BME280;9896;42.486;26.506;2023-02-28T02:00:41;100580.13;;;6.84;100.00
19510;BME280;9896;42.486;26.506;2023-02-28T02:03:13;100581.28;;;6.81;100.00
19510;BME280;9896;42.486;26.506;2023-02-28T02:05:40;100576.63;;;6.83;100.00
19510;BME280;9896;42.486;26.506;2023-02-28T02:08:10;100574.63;;;6.93;100.00
19510;BME280;9896;42.486;26.506;2023-02-28T02:10:55;100580.78;;;6.86;100.00
19510;BME280;9896;42.486;26.506;2023-02-28T02:18:46;100584.63;;;6.75;100.00
19510;BME280;9896;42.486;26.506;2023-02-28T02:29:15;100615.78;;;6.83;100.00
19510;BME280;9896;42.486;26.506;2023-02-28T02:31:58;100596.28;;;6.82;100.00
19510;BME280;9896;42.486;26.506;2023-02-28T02:40:08;100614.28;;;6.88;100.00
19510;BME280;9896;42.486;26.506;2023-02-28T02:42:56;100602.59;;;6.81;100.00
19510;BME280;9896;42.486;26.506;2023-02-28T02:45:47;100581.47;;;6.72;100.00
19510;BME280;9896;42.486;26.506;2023-02-28T02:48:18;100612.59;;;6.79;100.00
19510;BME280;9896;42.486;26.506;2023-02-28T02:50:48;100605.59;;;6.78;100.00
19510;BME280;9896;42.486;26.506;2023-02-28T02:53:17;100590.44;;;6.71;100.00
19510;BME280;9896;42.486;26.506;2023-02-28T02:55:47;100603.59;;;6.56;100.00
19510;BME280;9896;42.486;26.506;2023-02-28T02:58:23;100610.56;;;6.65;100.00
19510;BME280;9896;42.486;26.506;2023-02-28T03:00:55;100594.59;;;6.73;100.00
19510;BME280;9896;42.486;26.506;2023-02-28T03:03:23;100590.75;;;6.60;100.00
19510;BME280;9896;42.486;26.506;2023-02-28T03:05:58;100628.72;;;6.62;100.00
19510;BME280;9896;42.486;26.506;2023-02-28T03:08:25;100630.03;;;6.58;100.00
19510;BME280;9896;42.486;26.506;2023-02-28T03:10:55;100633.22;;;6.69;100.00
19510;BME280;9896;42.486;26.506;2023-02-28T03:26:33;100649.41;;;6.68;100.00
19510;BME280;9896;42.486;26.506;2023-02-28T03:29:33;100652.91;;;6.68;100.00
19510;BME280;9896;42.486;26.506;2023-02-28T03:32:19;100647.19;;;6.55;100.00
19510;BME280;9896;42.486;26.506;2023-02-28T03:37:25;100637.53;;;6.54;100.00
19510;BME280;9896;42.486;26.506;2023-02-28T03:40:06;100649.47;;;6.42;100.00
19510;BME280;9896;42.486;26.506;2023-02-28T03:42:35;100640.16;;;6.46;100.00
19510;BME280;9896;42.486;26.506;2023-02-28T03:45:13;100642.34;;;6.50;100.00
19510;BME280;9896;42.486;26.506;2023-02-28T03:47:52;100644.78;;;6.36;100.00
19510;BME280;9896;42.486;26.506;2023-02-28T03:53:30;100642.69;;;6.47;100.00
19510;BME280;9896;42.486;26.506;2023-02-28T04:01:19;100623.19;;;6.47;100.00
19510;BME280;9896;42.486;26.506;2023-02-28T04:03:46;100634.00;;;6.45;100.00
19510;BME280;9896;42.486;26.506;2023-02-28T04:06:18;100628.56;;;6.55;100.00
19510;BME280;9896;42.486;26.506;2023-02-28T04:08:45;100626.84;;;6.46;100.00
19510;BME280;9896;42.486;26.506;2023-02-28T04:13:58;100633.16;;;6.37;100.00
19510;BME280;9896;42.486;26.506;2023-02-28T04:16:23;100617.88;;;6.47;100.00
19510;BME280;9896;42.486;26.506;2023-02-28T04:18:49;100635.84;;;6.45;100.00
19510;BME280;9896;42.486;26.506;2023-02-28T04:21:15;100640.03;;;6.47;100.00
19510;BME280;9896;42.486;26.506;2023-02-28T04:23:40;100641.66;;;6.40;100.00
19510;BME280;9896;42.486;26.506;2023-02-28T04:26:06;100645.69;;;6.52;100.00
19510;BME280;9896;42.486;26.506;2023-02-28T04:28:32;100663.53;;;6.60;100.00
19510;BME280;9896;42.486;26.506;2023-02-28T04:31:01;100655.16;;;6.47;100.00
19510;BME280;9896;42.486;26.506;2023-02-28T04:33:27;100645.94;;;6.33;100.00
19510;BME280;9896;42.486;26.506;2023-02-28T04:36:06;100659.84;;;6.53;100.00
19510;BME280;9896;42.486;26.506;2023-02-28T04:38:36;100659.84;;;6.53;100.00
19510;BME280;9896;42.486;26.506;2023-02-28T04:41:02;100664.00;;;6.47;100.00
19510;BME280;9896;42.486;26.506;2023-02-28T04:43:28;100660.50;;;6.47;100.00
19510;BME280;9896;42.486;26.506;2023-02-28T04:45:57;100664.13;;;6.38;100.00
19510;BME280;9896;42.486;26.506;2023-02-28T04:48:24;100651.31;;;6.41;100.00
19510;BME280;9896;42.486;26.506;2023-02-28T04:50:51;100660.78;;;6.44;100.00
19510;BME280;9896;42.486;26.506;2023-02-28T04:53:17;100670.28;;;6.38;100.00
19510;BME280;9896;42.486;26.506;2023-02-28T04:55:42;100657.22;;;6.19;100.00
19510;BME280;9896;42.486;26.506;2023-02-28T04:58:08;100673.75;;;6.31;100.00
19510;BME280;9896;42.486;26.506;2023-02-28T05:00:34;100676.44;;;6.39;100.00
19510;BME280;9896;42.486;26.506;2023-02-28T05:03:00;100673.94;;;6.37;100.00
19510;BME280;9896;42.486;26.506;2023-02-28T05:05:25;100669.56;;;6.28;100.00
19510;BME280;9896;42.486;26.506;2023-02-28T05:07:50;100683.91;;;6.27;100.00
19510;BME280;9896;42.486;26.506;2023-02-28T05:10:16;100687.19;;;6.21;100.00
19510;BME280;9896;42.486;26.506;2023-02-28T05:12:42;100688.03;;;6.22;100.00
19510;BME280;9896;42.486;26.506;2023-02-28T05:15:12;100691.84;;;6.19;100.00
19510;BME280;9896;42.486;26.506;2023-02-28T05:17:38;100694.22;;;6.30;100.00
19510;BME280;9896;42.486;26.506;2023-02-28T05:20:04;100696.88;;;6.30;100.00
19510;BME280;9896;42.486;26.506;2023-02-28T05:22:30;100716.38;;;6.31;100.00
19510;BME280;9896;42.486;26.506;2023-02-28T05:24:55;100723.56;;;6.38;100.00
19510;BME280;9896;42.486;26.506;2023-02-28T05:27:21;100726.41;;;6.45;100.00
19510;BME280;9896;42.486;26.506;2023-02-28T05:29:46;100734.53;;;6.35;100.00
19510;BME280;9896;42.486;26.506;2023-02-28T05:32:12;100722.78;;;6.20;100.00
19510;BME280;9896;42.486;26.506;2023-02-28T05:34:39;100724.19;;;6.32;100.00
19510;BME280;9896;42.486;26.506;2023-02-28T05:37:05;100732.81;;;6.26;100.00
19510;BME280;9896;42.486;26.506;2023-02-28T05:39:32;100714.84;;;6.28;100.00
19510;BME280;9896;42.486;26.506;2023-02-28T05:41:58;100717.81;;;6.25;100.00
19510;BME280;9896;42.486;26.506;2023-02-28T05:44:24;100745.81;;;6.29;100.00
19510;BME280;9896;42.486;26.506;2023-02-28T05:46:50;100754.53;;;6.39;100.00
19510;BME280;9896;42.486;26.506;2023-02-28T05:49:15;100753.94;;;6.28;100.00
19510;BME280;9896;42.486;26.506;2023-02-28T05:51:41;100742.88;;;6.40;100.00
19510;BME280;9896;42.486;26.506;2023-02-28T05:54:07;100744.91;;;6.46;100.00
19510;BME280;9896;42.486;26.506;2023-02-28T05:56:33;100756.84;;;6.34;100.00
19510;BME280;9896;42.486;26.506;2023-02-28T05:59:00;100760.53;;;6.41;100.00
19510;BME280;9896;42.486;26.506;2023-02-28T06:01:36;100767.91;;;6.47;100.00
19510;BME280;9896;42.486;26.506;2023-02-28T06:04:04;100769.91;;;6.53;100.00
19510;BME280;9896;42.486;26.506;2023-02-28T06:06:30;100763.47;;;6.64;100.00
19510;BME280;9896;42.486;26.506;2023-02-28T06:08:56;100761.84;;;6.37;100.00
19510;BME280;9896;42.486;26.506;2023-02-28T06:11:22;100765.75;;;6.51;100.00
19510;BME280;9896;42.486;26.506;2023-02-28T06:13:59;100769.88;;;6.45;100.00
19510;BME280;9896;42.486;26.506;2023-02-28T06:16:27;100762.59;;;6.56;100.00
19510;BME280;9896;42.486;26.506;2023-02-28T06:18:52;100772.06;;;6.50;100.00
19510;BME280;9896;42.486;26.506;2023-02-28T06:21:21;100770.41;;;6.57;100.00
19510;BME280;9896;42.486;26.506;2023-02-28T06:23:47;100766.22;;;6.46;100.00
19510;BME280;9896;42.486;26.506;2023-02-28T06:26:13;100773.34;;;6.72;100.00
19510;BME280;9896;42.486;26.506;2023-02-28T06:28:39;100769.09;;;6.61;100.00
19510;BME280;9896;42.486;26.506;2023-02-28T06:31:10;100759.72;;;6.49;100.00
19510;BME280;9896;42.486;26.506;2023-02-28T06:33:37;100756.75;;;6.52;100.00
19510;BME280;9896;42.486;26.506;2023-02-28T06:36:04;100752.44;;;6.51;100.00
19510;BME280;9896;42.486;26.506;2023-02-28T06:38:30;100754.75;;;6.54;100.00
19510;BME280;9896;42.486;26.506;2023-02-28T06:40:58;100749.44;;;6.54;100.00
19510;BME280;9896;42.486;26.506;2023-02-28T06:43:28;100756.69;;;6.44;100.00
19510;BME280;9896;42.486;26.506;2023-02-28T06:45:55;100753.31;;;6.60;100.00
19510;BME280;9896;42.486;26.506;2023-02-28T06:48:21;100771.69;;;6.79;100.00
19510;BME280;9896;42.486;26.506;2023-02-28T06:50:47;100767.81;;;6.73;100.00
19510;BME280;9896;42.486;26.506;2023-02-28T06:53:12;100766.28;;;6.63;100.00
19510;BME280;9896;42.486;26.506;2023-02-28T06:55:39;100775.88;;;6.47;100.00
19510;BME280;9896;42.486;26.506;2023-02-28T06:58:05;100773.03;;;6.49;100.00
19510;BME280;9896;42.486;26.506;2023-02-28T07:00:43;100783.97;;;6.64;100.00
19510;BME280;9896;42.486;26.506;2023-02-28T07:03:10;100772.56;;;6.53;100.00
19510;BME280;9896;42.486;26.506;2023-02-28T07:05:37;100781.88;;;6.49;100.00
19510;BME280;9896;42.486;26.506;2023-02-28T07:08:03;100794.81;;;6.44;100.00
19510;BME280;9896;42.486;26.506;2023-02-28T07:10:29;100800.19;;;6.52;100.00
19510;BME280;9896;42.486;26.506;2023-02-28T07:12:55;100806.31;;;6.45;100.00
19510;BME280;9896;42.486;26.506;2023-02-28T07:15:20;100801.41;;;6.58;100.00
19510;BME280;9896;42.486;26.506;2023-02-28T07:17:46;100787.97;;;6.68;100.00
19510;BME280;9896;42.486;26.506;2023-02-28T07:20:12;100794.44;;;6.65;100.00
19510;BME280;9896;42.486;26.506;2023-02-28T07:22:37;100786.81;;;6.70;100.00
19510;BME280;9896;42.486;26.506;2023-02-28T07:25:04;100798.22;;;6.54;100.00
19510;BME280;9896;42.486;26.506;2023-02-28T07:27:30;100795.19;;;6.49;100.00
19510;BME280;9896;42.486;26.506;2023-02-28T07:29:56;100789.13;;;6.65;100.00
19510;BME280;9896;42.486;26.506;2023-02-28T07:32:22;100801.78;;;6.63;100.00
19510;BME280;9896;42.486;26.506;2023-02-28T07:34:48;100798.59;;;6.60;100.00
19510;BME280;9896;42.486;26.506;2023-02-28T07:37:14;100803.28;;;6.66;100.00
19510;BME280;9896;42.486;26.506;2023-02-28T07:39:40;100801.09;;;6.61;100.00
19510;BME280;9896;42.486;26.506;2023-02-28T07:42:07;100812.94;;;6.67;100.00
19510;BME280;9896;42.486;26.506;2023-02-28T07:44:38;100811.13;;;6.67;100.00
19510;BME280;9896;42.486;26.506;2023-02-28T07:47:09;100827.34;;;6.82;100.00
19510;BME280;9896;42.486;26.506;2023-02-28T07:49:36;100827.19;;;6.83;100.00
19510;BME280;9896;42.486;26.506;2023-02-28T07:52:06;100806.53;;;6.85;100.00
19510;BME280;9896;42.486;26.506;2023-02-28T07:54:32;100800.91;;;6.88;100.00
19510;BME280;9896;42.486;26.506;2023-02-28T07:56:58;100804.06;;;6.92;100.00
19510;BME280;9896;42.486;26.506;2023-02-28T07:59:24;100790.78;;;7.00;100.00
19510;BME280;9896;42.486;26.506;2023-02-28T08:01:49;100789.97;;;7.16;100.00
19510;BME280;9896;42.486;26.506;2023-02-28T08:04:18;100793.13;;;7.11;100.00
19510;BME280;9896;42.486;26.506;2023-02-28T08:06:44;100800.16;;;7.12;100.00
19510;BME280;9896;42.486;26.506;2023-02-28T08:09:10;100808.78;;;7.06;100.00
19510;BME280;9896;42.486;26.506;2023-02-28T08:11:36;100798.63;;;7.10;100.00
19510;BME280;9896;42.486;26.506;2023-02-28T08:14:02;100798.38;;;7.37;100.00
19510;BME280;9896;42.486;26.506;2023-02-28T08:16:28;100794.88;;;7.36;100.00
19510;BME280;9896;42.486;26.506;2023-02-28T08:18:53;100793.22;;;7.52;100.00
19510;BME280;9896;42.486;26.506;2023-02-28T08:21:20;100794.91;;;7.77;100.00
19510;BME280;9896;42.486;26.506;2023-02-28T08:23:50;100800.22;;;7.53;100.00
19510;BME280;9896;42.486;26.506;2023-02-28T08:26:17;100799.84;;;7.23;100.00
19510;BME280;9896;42.486;26.506;2023-02-28T08:28:42;100795.06;;;7.59;100.00
19510;BME280;9896;42.486;26.506;2023-02-28T08:31:14;100802.38;;;7.41;100.00
19510;BME280;9896;42.486;26.506;2023-02-28T08:33:41;100803.88;;;7.52;100.00
19510;BME280;9896;42.486;26.506;2023-02-28T08:36:08;100800.75;;;7.72;100.00
19510;BME280;9896;42.486;26.506;2023-02-28T08:38:35;100800.06;;;7.62;100.00
19510;BME280;9896;42.486;26.506;2023-02-28T08:41:02;100800.25;;;7.61;100.00
19510;BME280;9896;42.486;26.506;2023-02-28T08:43:28;100799.75;;;7.65;100.00
19510;BME280;9896;42.486;26.506;2023-02-28T08:45:55;100807.06;;;7.71;100.00
19510;BME280;9896;42.486;26.506;2023-02-28T08:48:28;100800.25;;;7.61;100.00
19510;BME280;9896;42.486;26.506;2023-02-28T08:51:01;100797.72;;;7.67;100.00
19510;BME280;9896;42.486;26.506;2023-02-28T08:53:27;100807.91;;;7.72;100.00
19510;BME280;9896;42.486;26.506;2023-02-28T08:56:00;100808.75;;;7.97;100.00
19510;BME280;9896;42.486;26.506;2023-02-28T08:58:27;100813.94;;;7.90;100.00
19510;BME280;9896;42.486;26.506;2023-02-28T09:00:53;100814.44;;;7.77;100.00
19510;BME280;9896;42.486;26.506;2023-02-28T09:03:19;100810.56;;;7.56;100.00
19510;BME280;9896;42.486;26.506;2023-02-28T09:05:53;100816.03;;;7.46;100.00
19510;BME280;9896;42.486;26.506;2023-02-28T09:08:19;100822.09;;;7.56;100.00
19510;BME280;9896;42.486;26.506;2023-02-28T09:10:45;100809.56;;;7.57;100.00
19510;BME280;9896;42.486;26.506;2023-02-28T09:13:10;100813.75;;;7.67;100.00
19510;BME280;9896;42.486;26.506;2023-02-28T09:15:37;100808.75;;;8.05;100.00
19510;BME280;9896;42.486;26.506;2023-02-28T09:18:03;100798.06;;;8.13;100.00
19510;BME280;9896;42.486;26.506;2023-02-28T09:20:28;100816.28;;;7.85;100.00
19510;BME280;9896;42.486;26.506;2023-02-28T09:22:54;100804.41;;;8.04;100.00
19510;BME280;9896;42.486;26.506;2023-02-28T09:25:20;100801.59;;;7.97;100.00
19510;BME280;9896;42.486;26.506;2023-02-28T09:27:45;100802.75;;;8.03;100.00
19510;BME280;9896;42.486;26.506;2023-02-28T09:30:12;100817.09;;;8.10;100.00
19510;BME280;9896;42.486;26.506;2023-02-28T09:32:38;100830.81;;;7.82;100.00
19510;BME280;9896;42.486;26.506;2023-02-28T09:35:04;100818.09;;;7.76;100.00
19510;BME280;9896;42.486;26.506;2023-02-28T09:37:30;100818.59;;;7.64;100.00
19510;BME280;9896;42.486;26.506;2023-02-28T09:39:57;100806.06;;;7.48;100.00
19510;BME280;9896;42.486;26.506;2023-02-28T09:42:33;100822.56;;;7.43;100.00
19510;BME280;9896;42.486;26.506;2023-02-28T09:45:06;100815.03;;;7.39;100.00
19510;BME280;9896;42.486;26.506;2023-02-28T09:47:41;100819.03;;;7.43;100.00
19510;BME280;9896;42.486;26.506;2023-02-28T09:52:46;100822.41;;;7.45;100.00
19510;BME280;9896;42.486;26.506;2023-02-28T09:55:42;100835.09;;;7.59;100.00
19510;BME280;9896;42.486;26.506;2023-02-28T09:58:23;100822.53;;;7.35;100.00
19510;BME280;9896;42.486;26.506;2023-02-28T10:01:09;100820.25;;;7.48;100.00
19510;BME280;9896;42.486;26.506;2023-02-28T10:03:43;100802.56;;;7.56;100.00
19510;BME280;9896;42.486;26.506;2023-02-28T10:06:17;100800.72;;;7.56;100.00
19510;BME280;9896;42.486;26.506;2023-02-28T10:09:17;100795.41;;;7.64;100.00
19510;BME280;9896;42.486;26.506;2023-02-28T10:11:39;100800.25;;;7.85;100.00
19510;BME280;9896;42.486;26.506;2023-02-28T10:14:17;100797.75;;;7.75;100.00
19510;BME280;9896;42.486;26.506;2023-02-28T10:16:50;100801.41;;;7.74;100.00
19510;BME280;9896;42.486;26.506;2023-02-28T10:24:41;100780.03;;;7.66;100.00
19510;BME280;9896;42.486;26.506;2023-02-28T10:27:17;100759.19;;;7.45;100.00
19510;BME280;9896;42.486;26.506;2023-02-28T10:29:51;100760.53;;;7.50;100.00
19510;BME280;9896;42.486;26.506;2023-02-28T10:32:20;100774.53;;;7.43;100.00
19510;BME280;9896;42.486;26.506;2023-02-28T10:37:32;100775.03;;;7.63;100.00
19510;BME280;9896;42.486;26.506;2023-02-28T10:42:56;100768.38;;;7.51;100.00
19510;BME280;9896;42.486;26.506;2023-02-28T10:45:24;100766.03;;;7.40;100.00
19510;BME280;9896;42.486;26.506;2023-02-28T10:47:59;100766.66;;;7.26;100.00
19510;BME280;9896;42.486;26.506;2023-02-28T10:50:37;100758.03;;;7.40;100.00
19510;BME280;9896;42.486;26.506;2023-02-28T10:55:36;100748.53;;;7.70;100.00
19510;BME280;9896;42.486;26.506;2023-02-28T10:58:02;100757.19;;;7.47;100.00
19510;BME280;9896;42.486;26.506;2023-02-28T11:00:33;100756.34;;;7.39;100.00
19510;BME280;9896;42.486;26.506;2023-02-28T11:02:59;100751.00;;;7.47;100.00
19510;BME280;9896;42.486;26.506;2023-02-28T11:05:31;100747.97;;;7.26;100.00
19510;BME280;9896;42.486;26.506;2023-02-28T11:08:10;100739.19;;;7.66;100.00
19510;BME280;9896;42.486;26.506;2023-02-28T11:10:37;100745.88;;;7.54;100.00
19510;BME280;9896;42.486;26.506;2023-02-28T11:13:05;100733.66;;;7.59;100.00
19510;BME280;9896;42.486;26.506;2023-02-28T11:15:32;100753.03;;;7.37;100.00
19510;BME280;9896;42.486;26.506;2023-02-28T11:18:01;100747.84;;;7.35;100.00
19510;BME280;9896;42.486;26.506;2023-02-28T11:20:32;100748.66;;;7.28;100.00
19510;BME280;9896;42.486;26.506;2023-02-28T11:23:01;100749.03;;;7.41;100.00
19510;BME280;9896;42.486;26.506;2023-02-28T11:25:29;100752.34;;;7.43;100.00
19510;BME280;9896;42.486;26.506;2023-02-28T11:27:57;100737.81;;;7.13;100.00
19510;BME280;9896;42.486;26.506;2023-02-28T11:30:38;100746.13;;;7.18;100.00
19510;BME280;9896;42.486;26.506;2023-02-28T11:36:03;100747.66;;;7.29;100.00
19510;BME280;9896;42.486;26.506;2023-02-28T11:38:31;100753.44;;;7.00;100.00
19510;BME280;9896;42.486;26.506;2023-02-28T11:41:05;100766.31;;;7.13;100.00
19510;BME280;9896;42.486;26.506;2023-02-28T11:46:41;100741.13;;;7.07;100.00
19510;BME280;9896;42.486;26.506;2023-02-28T11:49:40;100749.13;;;7.07;100.00
19510;BME280;9896;42.486;26.506;2023-02-28T12:04:20;100737.31;;;7.34;100.00
19510;BME280;9896;42.486;26.506;2023-02-28T12:18:01;100727.69;;;7.57;100.00
19510;BME280;9896;42.486;26.506;2023-02-28T12:25:55;100712.16;;;7.53;100.00
19510;BME280;9896;42.486;26.506;2023-02-28T12:28:37;100710.00;;;7.56;100.00
19510;BME280;9896;42.486;26.506;2023-02-28T12:31:11;100722.16;;;7.67;100.00
19510;BME280;9896;42.486;26.506;2023-02-28T12:33:48;100709.16;;;7.64;100.00
19510;BME280;9896;42.486;26.506;2023-02-28T12:36:18;100723.81;;;7.35;100.00
19510;BME280;9896;42.486;26.506;2023-02-28T12:39:02;100738.34;;;7.49;100.00
19510;BME280;9896;42.486;26.506;2023-02-28T12:41:50;100722.16;;;7.42;100.00
19510;BME280;9896;42.486;26.506;2023-02-28T12:47:14;100727.00;;;7.31;100.00
19510;BME280;9896;42.486;26.506;2023-02-28T12:49:52;100730.47;;;7.15;100.00
19510;BME280;9896;42.486;26.506;2023-02-28T13:01:12;100724.16;;;7.32;100.00
19510;BME280;9896;42.486;26.506;2023-02-28T13:09:16;100702.13;;;7.06;100.00
19510;BME280;9896;42.486;26.506;2023-02-28T13:11:47;100709.50;;;7.28;100.00
19510;BME280;9896;42.486;26.506;2023-02-28T13:17:17;100710.81;;;7.24;100.00
19510;BME280;9896;42.486;26.506;2023-02-28T13:24:52;100720.31;;;7.27;100.00
19510;BME280;9896;42.486;26.506;2023-02-28T13:27:57;100721.16;;;7.27;100.00
19510;BME280;9896;42.486;26.506;2023-02-28T13:33:27;100714.31;;;7.25;100.00
19510;BME280;9896;42.486;26.506;2023-02-28T13:38:52;100715.31;;;7.32;100.00
19510;BME280;9896;42.486;26.506;2023-02-28T14:05:23;100699.41;;;6.90;100.00
19510;BME280;9896;42.486;26.506;2023-02-28T14:07:57;100699.25;;;6.91;100.00
19510;BME280;9896;42.486;26.506;2023-02-28T14:10:25;100709.28;;;7.06;100.00
19510;BME280;9896;42.486;26.506;2023-02-28T14:16:00;100701.25;;;6.89;100.00
19510;BME280;9896;42.486;26.506;2023-02-28T14:20:59;100706.56;;;6.89;100.00
19510;BME280;9896;42.486;26.506;2023-02-28T14:30:02;100698.22;;;6.68;100.00
19510;BME280;9896;42.486;26.506;2023-02-28T14:38:29;100707.78;;;6.53;100.00
19510;BME280;9896;42.486;26.506;2023-02-28T14:40:58;100713.75;;;6.39;100.00
19510;BME280;9896;42.486;26.506;2023-02-28T14:43:27;100715.63;;;6.21;100.00
19510;BME280;9896;42.486;26.506;2023-02-28T14:45:59;100715.06;;;6.35;100.00
19510;BME280;9896;42.486;26.506;2023-02-28T14:48:26;100719.19;;;6.29;100.00
19510;BME280;9896;42.486;26.506;2023-02-28T14:50:55;100717.16;;;6.23;100.00
19510;BME280;9896;42.486;26.506;2023-02-28T14:53:23;100717.22;;;6.31;100.00
19510;BME280;9896;42.486;26.506;2023-02-28T14:55:50;100723.50;;;6.30;100.00
19510;BME280;9896;42.486;26.506;2023-02-28T15:00:51;100725.41;;;6.46;100.00
19510;BME280;9896;42.486;26.506;2023-02-28T15:03:19;100727.22;;;6.37;100.00
19510;BME280;9896;42.486;26.506;2023-02-28T15:05:57;100727.56;;;6.42;100.00
19510;BME280;9896;42.486;26.506;2023-02-28T15:08:23;100739.31;;;6.32;100.00
19510;BME280;9896;42.486;26.506;2023-02-28T15:11:07;100739.63;;;6.29;100.00
19510;BME280;9896;42.486;26.506;2023-02-28T15:13:53;100738.25;;;6.17;100.00
19510;BME280;9896;42.486;26.506;2023-02-28T15:16:29;100737.69;;;6.05;100.00
19510;BME280;9896;42.486;26.506;2023-02-28T15:21:39;100749.31;;;6.04;100.00
19510;BME280;9896;42.486;26.506;2023-02-28T15:24:30;100745.16;;;6.01;100.00
19510;BME280;9896;42.486;26.506;2023-02-28T15:27:00;100744.56;;;5.90;100.00
19510;BME280;9896;42.486;26.506;2023-02-28T15:29:30;100752.69;;;5.88;100.00
19510;BME280;9896;42.486;26.506;2023-02-28T15:32:05;100757.34;;;5.86;100.00
19510;BME280;9896;42.486;26.506;2023-02-28T15:34:40;100745.41;;;5.90;100.00
19510;BME280;9896;42.486;26.506;2023-02-28T15:37:45;100758.53;;;5.92;100.00
19510;BME280;9896;42.486;26.506;2023-02-28T15:40:24;100760.13;;;5.85;100.00
19510;BME280;9896;42.486;26.506;2023-02-28T15:48:05;100754.06;;;5.75;100.00
19510;BME280;9896;42.486;26.506;2023-02-28T15:50:31;100764.22;;;5.79;100.00
19510;BME280;9896;42.486;26.506;2023-02-28T15:52:57;100762.41;;;5.80;100.00
19510;BME280;9896;42.486;26.506;2023-02-28T15:55:26;100749.56;;;5.75;100.00
19510;BME280;9896;42.486;26.506;2023-02-28T15:57:57;100763.34;;;5.71;100.00
19510;BME280;9896;42.486;26.506;2023-02-28T16:00:30;100761.44;;;5.81;100.00
19510;BME280;9896;42.486;26.506;2023-02-28T16:02:58;100759.03;;;5.70;100.00